Terminal Aerodrome Forecast
Issued by NWS Burlington, VT

Home | Current Version | Previous Version | Text Only | Print | Product List | Glossary On
Versions: 1 2 3 4 5 6 7 8 9 10 11 12
000
FTUS41 KBTV 011120
TAFBTV
TAF
KBTV 011120Z 0112/0212 10003KT P6SM VCSH BKN060 OVC120
     FM011400 13005KT P6SM -RA BKN035 OVC050
     FM011700 15007KT 3SM -RA BR BKN025 OVC045
     FM012000 16011KT 6SM -SHRA BKN025 OVC045
     FM020200 16007KT P6SM -SHRA BKN025 OVC045=

USA.gov is the U.S. government's official web portal to all federal, state and local government web resources and services.